Oakland, Michigan
Current Conditions -  °F | °C
As of 4:53 PM on Tuesday 25 Nov 2014 (Local Time) from KPTK Reporting Station
Overcast Overcast  
Wind Chill: 21°   Ceiling: 2300
Heat Index: 30°   Visibility: 10mi
Dew Point: 22°   Wind: 12mph
Humidity: 72%   Direction: 250°WSW
Pressure: 30.07"   Gusts: NA
Location:  42.77°N, 83.18°W
Report Text: KPTK 252153Z 25010KT 10SM BKN023 BKN030 OVC037 M01/M06 A3007 RMK AO2 SNE51 SLP194 P0000 T10111056
Loading
Personal Weather Stations






























Interactive Weather Map New forecast layout! Learn more

10-Day Weather Forecast

Advertisements
Track Severe Weather on mobile